Time;durP1;ratioP1;P1;durP2;ratioP2;P2;SDS_P1;SDS_P2;PMS_P1;PMS_P2;Temp;Humidity;BMP_temperature;BMP_pressure;BME280_temperature;BME280_humidity;BME280_pressure;Samples;Min_cycle;Max_cycle;Signal;HPM_P1;HPM_P2
2022/09/07 00:00:12;;;;;;;3.73;3.40;;;18.70;99.90;;;;;;4974135;28;20331;-86
2022/09/07 00:02:38;;;;;;;4.10;3.50;;;18.70;99.90;;;;;;4975547;28;20773;-86
2022/09/07 00:05:04;;;;;;;3.27;3.00;;;18.80;99.90;;;;;;4982580;28;20527;-85
2022/09/07 00:07:30;;;;;;;3.73;3.40;;;18.80;99.90;;;;;;4978992;28;20227;-86
2022/09/07 00:09:55;;;;;;;3.90;2.83;;;18.90;99.90;;;;;;4980692;28;20443;-86
2022/09/07 00:12:21;;;;;;;5.27;3.33;;;18.90;99.90;;;;;;4995727;28;20181;-86
2022/09/07 00:14:46;;;;;;;3.50;3.10;;;18.90;99.90;;;;;;4976491;28;20243;-86
2022/09/07 00:17:12;;;;;;;3.53;3.23;;;18.90;99.90;;;;;;4995061;28;20176;-85
2022/09/07 00:19:37;;;;;;;6.77;3.30;;;18.90;99.90;;;;;;4976757;28;20197;-85
2022/09/07 00:22:03;;;;;;;3.20;3.00;;;18.90;99.90;;;;;;4974025;28;20185;-86
2022/09/07 00:24:28;;;;;;;3.30;3.00;;;18.90;99.90;;;;;;4978712;28;20197;-85
2022/09/07 00:26:55;;;;;;;3.23;2.93;;;18.90;99.90;;;;;;4979720;28;20188;-86
2022/09/07 00:29:23;;;;;;;2.50;2.40;;;18.90;99.90;;;;;;4972578;28;20182;-86
2022/09/07 00:31:49;;;;;;;6.13;2.80;;;18.90;99.90;;;;;;4994255;28;20442;-86
2022/09/07 00:34:14;;;;;;;4.23;2.70;;;18.90;99.90;;;;;;4992226;28;20436;-86
2022/09/07 00:36:40;;;;;;;4.67;2.60;;;18.80;99.90;;;;;;4978609;28;20280;-86
2022/09/07 00:39:05;;;;;;;2.70;2.50;;;18.70;99.90;;;;;;4980700;28;20620;-86
2022/09/07 00:41:32;;;;;;;4.67;2.60;;;18.70;99.90;;;;;;4976402;28;20358;-85
2022/09/07 00:44:18;;;;;;;2.53;2.33;;;18.60;99.90;;;;;;4977190;28;20193;-84
2022/09/07 00:46:45;;;;;;;2.70;2.50;;;18.60;99.90;;;;;;4991389;28;20462;-85
2022/09/07 00:49:17;;;;;;;4.27;2.40;;;18.50;99.90;;;;;;4977943;28;20480;-85
2022/09/07 00:52:02;;;;;;;2.63;2.40;;;18.50;99.90;;;;;;4972923;28;20440;-85
2022/09/07 00:54:42;;;;;;;6.17;2.80;;;18.60;99.90;;;;;;4973706;28;20440;-85
2022/09/07 00:57:30;;;;;;;3.63;2.20;;;18.70;99.90;;;;;;4975669;28;20827;-86
2022/09/07 00:59:56;;;;;;;2.47;2.27;;;18.70;99.90;;;;;;4980452;28;20468;-86
2022/09/07 01:02:23;;;;;;;2.90;2.70;;;18.60;99.90;;;;;;4977140;28;20432;-85
2022/09/07 01:04:59;;;;;;;2.73;2.53;;;18.50;99.90;;;;;;4981293;28;20471;-85
2022/09/07 01:07:24;;;;;;;5.70;2.60;;;18.50;99.90;;;;;;4974999;28;20445;-85
2022/09/07 01:09:51;;;;;;;2.87;2.60;;;18.60;99.90;;;;;;4968878;28;20428;-85
2022/09/07 01:12:19;;;;;;;5.43;3.07;;;18.60;99.90;;;;;;4972228;28;20181;-85
2022/09/07 01:14:52;;;;;;;3.03;2.13;;;18.60;99.90;;;;;;4968348;28;20524;-86
2022/09/07 01:17:43;;;;;;;2.40;2.20;;;18.50;99.90;;;;;;4976492;28;20931;-86
2022/09/07 01:20:18;;;;;;;2.90;2.33;;;18.50;99.90;;;;;;4977769;28;20716;-85
2022/09/07 01:23:10;;;;;;;3.87;2.30;;;18.60;99.90;;;;;;4974119;28;20431;-85
2022/09/07 01:26:04;;;;;;;3.07;2.63;;;18.60;99.90;;;;;;4983117;28;20486;-86
2022/09/07 01:28:32;;;;;;;4.73;2.50;;;18.60;99.90;;;;;;4975404;28;20842;-86
2022/09/07 01:31:16;;;;;;;2.67;2.47;;;18.70;99.90;;;;;;4977582;28;20438;-86
2022/09/07 01:33:47;;;;;;;3.03;2.60;;;18.70;99.90;;;;;;4971616;28;20548;-85
2022/09/07 01:36:27;;;;;;;4.37;2.70;;;18.80;99.90;;;;;;4987564;28;20527;-85
2022/09/07 01:38:57;;;;;;;2.93;2.73;;;18.90;99.90;;;;;;4979035;28;20448;-85
2022/09/07 01:41:31;;;;;;;3.53;3.10;;;18.90;99.90;;;;;;4975396;28;20807;-86
2022/09/07 01:44:09;;;;;;;4.60;3.40;;;18.90;99.90;;;;;;4979267;28;20445;-85
2022/09/07 01:47:08;;;;;;;5.07;3.30;;;18.80;99.90;;;;;;4990884;28;20457;-85
2022/09/07 01:49:41;;;;;;;5.17;3.37;;;18.70;99.90;;;;;;4966876;28;20773;-85
2022/09/07 01:52:20;;;;;;;4.77;3.27;;;18.60;99.90;;;;;;4973886;28;21418;-85
2022/09/07 01:54:50;;;;;;;4.17;3.70;;;18.60;99.90;;;;;;4973213;28;20440;-85
2022/09/07 01:57:24;;;;;;;3.60;3.30;;;18.60;99.90;;;;;;4973524;28;20471;-85
2022/09/07 01:59:58;;;;;;;3.90;3.53;;;18.60;99.90;;;;;;4987589;28;20872;-85
2022/09/07 02:02:36;;;;;;;3.83;3.40;;;18.50;99.90;;;;;;4977078;28;20446;-85
2022/09/07 02:05:08;;;;;;;6.23;3.40;;;18.40;99.90;;;;;;4970452;28;20480;-85
2022/09/07 02:08:04;;;;;;;3.80;3.50;;;18.30;99.90;;;;;;4970325;28;20441;-86
2022/09/07 02:10:44;;;;;;;6.97;3.93;;;18.30;99.90;;;;;;4979777;28;20467;-86
2022/09/07 02:13:37;;;;;;;4.63;3.97;;;18.30;99.90;;;;;;4988237;28;20474;-85
2022/09/07 02:16:25;;;;;;;5.00;3.97;;;18.30;99.90;;;;;;4979120;28;20970;-85
2022/09/07 02:18:55;;;;;;;5.17;4.13;;;18.30;99.90;;;;;;4974150;28;20870;-85
2022/09/07 02:21:27;;;;;;;4.47;3.47;;;18.40;99.90;;;;;;4971614;28;20444;-85
2022/09/07 02:24:02;;;;;;;7.37;4.37;;;18.40;99.90;;;;;;4971756;28;20496;-86
2022/09/07 02:26:29;;;;;;;4.80;4.40;;;18.40;99.90;;;;;;4986934;28;20521;-86
2022/09/07 02:28:55;;;;;;;4.47;4.07;;;18.40;99.90;;;;;;4972516;28;20441;-85
2022/09/07 02:31:21;;;;;;;4.57;4.17;;;18.40;99.90;;;;;;4974593;28;20441;-85
2022/09/07 02:33:47;;;;;;;5.87;4.00;;;18.40;99.90;;;;;;4976671;28;20439;-85
2022/09/07 02:36:16;;;;;;;5.00;4.10;;;18.40;99.90;;;;;;4988004;28;20435;-85
2022/09/07 02:38:41;;;;;;;4.40;4.00;;;18.40;99.90;;;;;;4972091;28;20447;-85
2022/09/07 02:41:29;;;;;;;5.00;3.50;;;18.50;99.90;;;;;;4976611;28;20444;-86
2022/09/07 02:43:55;;;;;;;5.13;3.40;;;18.50;99.90;;;;;;4978248;28;20181;-85
2022/09/07 02:46:43;;;;;;;3.80;3.30;;;18.50;99.90;;;;;;4974847;28;20483;-86
2022/09/07 02:49:14;;;;;;;4.60;4.20;;;18.60;99.90;;;;;;4994701;28;20434;-86
2022/09/07 02:52:09;;;;;;;5.43;4.13;;;18.50;99.90;;;;;;4992940;28;20507;-86
2022/09/07 02:55:09;;;;;;;4.30;3.60;;;18.60;99.90;;;;;;4957768;28;20455;-85
2022/09/07 02:58:14;;;;;;;5.03;3.67;;;18.60;99.90;;;;;;4968757;28;20479;-85
2022/09/07 03:01:02;;;;;;;4.00;3.70;;;18.60;99.90;;;;;;4988596;28;21521;-85
2022/09/07 03:03:39;;;;;;;4.17;3.50;;;18.60;99.90;;;;;;4986202;28;20443;-85
2022/09/07 03:06:16;;;;;;;4.20;3.80;;;18.70;99.90;;;;;;4984501;28;20514;-85
2022/09/07 03:08:53;;;;;;;3.63;3.33;;;18.60;99.90;;;;;;4987424;28;20939;-85
2022/09/07 03:11:18;;;;;;;10.30;4.97;;;18.60;99.90;;;;;;4972250;28;20849;-85
2022/09/07 03:13:44;;;;;;;4.47;4.00;;;18.60;99.90;;;;;;4974476;28;20440;-85
2022/09/07 03:16:13;;;;;;;4.73;3.93;;;18.60;99.90;;;;;;4969611;28;20799;-85
2022/09/07 03:18:40;;;;;;;4.40;4.00;;;18.60;99.90;;;;;;4979743;28;20193;-85
2022/09/07 03:21:05;;;;;;;3.93;3.63;;;18.60;99.90;;;;;;4997752;28;20449;-85
2022/09/07 03:23:31;;;;;;;4.13;3.50;;;18.60;99.90;;;;;;4971221;28;20452;-85
2022/09/07 03:25:57;;;;;;;4.50;3.90;;;18.60;99.90;;;;;;4982418;28;20204;-85
2022/09/07 03:28:22;;;;;;;3.20;3.00;;;18.60;99.90;;;;;;4983505;28;20517;-85
2022/09/07 03:30:48;;;;;;;4.70;3.10;;;18.60;99.90;;;;;;4972891;28;20576;-85
2022/09/07 03:33:15;;;;;;;3.90;3.60;;;18.70;99.90;;;;;;4984186;28;20177;-85
2022/09/07 03:35:57;;;;;;;3.67;3.37;;;18.80;99.90;;;;;;4975706;28;20181;-85
2022/09/07 03:38:23;;;;;;;4.20;3.80;;;18.70;99.90;;;;;;4985474;28;20427;-85
2022/09/07 03:41:03;;;;;;;3.67;3.30;;;18.70;99.90;;;;;;4980752;28;20444;-85
2022/09/07 03:43:30;;;;;;;3.30;3.10;;;18.60;99.90;;;;;;4980113;28;20223;-85
2022/09/07 03:45:57;;;;;;;3.43;3.13;;;18.60;99.90;;;;;;4976628;28;20483;-85
2022/09/07 03:48:23;;;;;;;5.77;3.80;;;18.70;99.90;;;;;;4984286;28;20516;-85
2022/09/07 03:50:59;;;;;;;3.33;3.03;;;18.70;99.90;;;;;;4979831;28;20431;-85
2022/09/07 03:53:25;;;;;;;3.33;2.73;;;18.80;99.90;;;;;;4982115;28;20187;-85
2022/09/07 03:55:59;;;;;;;5.23;3.23;;;18.90;99.90;;;;;;4976539;28;20794;-85
2022/09/07 03:58:27;;;;;;;4.50;3.23;;;18.90;99.90;;;;;;4994492;28;20173;-85
2022/09/07 04:00:53;;;;;;;3.50;3.20;;;19.00;99.90;;;;;;4978287;28;20451;-84
2022/09/07 04:03:18;;;;;;;2.97;2.67;;;18.90;99.90;;;;;;4979429;28;20459;-85
2022/09/07 04:05:44;;;;;;;6.20;3.43;;;18.90;99.90;;;;;;4977060;28;20224;-85
2022/09/07 04:08:10;;;;;;;3.80;3.10;;;18.90;99.90;;;;;;4978207;28;20193;-86
2022/09/07 04:10:44;;;;;;;3.17;2.90;;;19.00;99.90;;;;;;4979141;28;20287;-86
2022/09/07 04:13:10;;;;;;;4.83;2.90;;;19.00;99.90;;;;;;4989523;28;20435;-85
2022/09/07 04:15:38;;;;;;;3.20;3.00;;;19.00;99.90;;;;;;4974851;28;20464;-85
2022/09/07 04:18:06;;;;;;;3.53;3.00;;;18.90;99.90;;;;;;4979564;28;20197;-86
2022/09/07 04:20:32;;;;;;;3.73;3.10;;;18.80;99.90;;;;;;4976481;28;20826;-85
2022/09/07 04:22:57;;;;;;;4.10;2.87;;;18.80;99.90;;;;;;4977723;28;20436;-85
2022/09/07 04:25:23;;;;;;;3.20;2.90;;;18.90;99.90;;;;;;4981902;28;20256;-85
2022/09/07 04:27:51;;;;;;;4.00;3.63;;;18.90;99.90;;;;;;4971288;28;20286;-85
2022/09/07 04:30:17;;;;;;;4.90;3.03;;;18.90;99.90;;;;;;4986454;28;20192;-86
2022/09/07 04:32:46;;;;;;;3.60;3.30;;;18.90;99.90;;;;;;4970990;28;20432;-85
2022/09/07 04:35:12;;;;;;;3.73;3.43;;;18.80;99.90;;;;;;4974862;28;20262;-85
2022/09/07 04:37:37;;;;;;;4.97;4.00;;;18.80;99.90;;;;;;4977842;28;20495;-85
2022/09/07 04:40:04;;;;;;;4.33;3.83;;;18.80;99.90;;;;;;4980584;28;20192;-85
2022/09/07 04:42:29;;;;;;;4.37;3.63;;;18.80;99.90;;;;;;4971308;28;20572;-85
2022/09/07 04:44:55;;;;;;;4.63;3.50;;;18.80;99.90;;;;;;4987333;28;20590;-85
2022/09/07 04:47:21;;;;;;;3.63;3.33;;;18.80;99.90;;;;;;4991756;28;20263;-85
2022/09/07 04:49:50;;;;;;;5.40;3.63;;;18.80;99.90;;;;;;4977547;28;20445;-85
2022/09/07 04:52:16;;;;;;;4.63;3.40;;;18.70;99.90;;;;;;4990945;28;20174;-84
2022/09/07 04:54:43;;;;;;;4.00;3.60;;;18.70;99.90;;;;;;4973190;28;20438;-85
2022/09/07 04:57:10;;;;;;;6.90;3.93;;;18.60;99.90;;;;;;4979132;28;20225;-84
2022/09/07 04:59:38;;;;;;;5.43;3.93;;;18.50;99.90;;;;;;4973318;28;20451;-85
2022/09/07 05:02:04;;;;;;;8.07;4.50;;;18.40;99.90;;;;;;4973950;28;20556;-84
2022/09/07 05:04:32;;;;;;;5.90;4.10;;;18.40;99.90;;;;;;4976538;28;20477;-85
2022/09/07 05:06:57;;;;;;;4.10;3.80;;;18.40;99.90;;;;;;4976952;28;20244;-85
2022/09/07 05:09:23;;;;;;;4.23;3.80;;;18.20;99.90;;;;;;4972063;28;20941;-86
2022/09/07 05:11:54;;;;;;;6.80;4.37;;;18.30;99.90;;;;;;4970767;28;20185;-84
2022/09/07 05:14:19;;;;;;;4.63;4.10;;;18.30;99.90;;;;;;4978034;28;20216;-84
2022/09/07 05:16:45;;;;;;;3.50;3.30;;;18.30;99.90;;;;;;4978259;28;20983;-84
2022/09/07 05:19:27;;;;;;;6.77;4.33;;;18.30;99.90;;;;;;4974841;28;20206;-84
2022/09/07 05:22:11;;;;;;;8.00;4.40;;;18.30;99.90;;;;;;4994300;28;20855;-87
2022/09/07 05:24:36;;;;;;;5.43;3.53;;;18.40;99.90;;;;;;4993556;28;20552;-87
2022/09/07 05:27:02;;;;;;;5.60;4.20;;;18.40;99.90;;;;;;4976591;28;20468;-83
2022/09/07 05:29:29;;;;;;;4.00;3.70;;;18.50;99.90;;;;;;4973699;28;20273;-84
2022/09/07 05:31:54;;;;;;;15.97;14.17;;;18.50;99.90;;;;;;4984389;28;20437;-86
2022/09/07 05:34:23;;;;;;;10.97;9.87;;;18.50;99.90;;;;;;4978169;28;20439;-86
2022/09/07 05:36:49;;;;;;;10.83;8.47;;;18.60;99.90;;;;;;4979236;28;20178;-83
2022/09/07 05:39:14;;;;;;;5.60;4.07;;;18.60;99.90;;;;;;4994262;28;20578;-84
2022/09/07 05:42:30;;;;;;;3.90;3.53;;;18.80;99.90;;;;;;4977348;28;20195;-84
2022/09/07 05:44:56;;;;;;;3.97;3.00;;;19.00;99.90;;;;;;4947432;28;20614;-84
2022/09/07 05:47:21;;;;;;;4.40;4.00;;;19.00;99.90;;;;;;4979888;28;20863;-84
2022/09/07 05:49:47;;;;;;;6.20;3.50;;;19.00;99.90;;;;;;4979899;28;20283;-84
2022/09/07 05:52:13;;;;;;;4.00;3.60;;;19.10;99.90;;;;;;4995050;28;20181;-84
2022/09/07 05:54:39;;;;;;;3.90;3.50;;;19.10;99.90;;;;;;4981221;28;20332;-84
2022/09/07 05:57:06;;;;;;;7.47;4.27;;;19.10;99.90;;;;;;4980082;28;20347;-83
2022/09/07 05:59:32;;;;;;;3.90;3.60;;;19.00;99.90;;;;;;4979324;28;20192;-84
2022/09/07 06:01:58;;;;;;;4.47;3.27;;;19.00;99.90;;;;;;4976951;28;20441;-84
2022/09/07 06:04:23;;;;;;;6.53;3.80;;;19.10;99.90;;;;;;4977092;28;20493;-84
2022/09/07 06:06:49;;;;;;;6.17;4.83;;;19.10;99.90;;;;;;4979084;28;20852;-84
2022/09/07 06:09:14;;;;;;;5.60;3.40;;;19.10;99.90;;;;;;4998548;28;20185;-84
2022/09/07 06:11:40;;;;;;;4.47;3.60;;;19.00;99.90;;;;;;4976938;28;20189;-84
2022/09/07 06:14:05;;;;;;;4.20;3.90;;;19.00;99.90;;;;;;4979981;28;20184;-84
2022/09/07 06:16:32;;;;;;;4.30;3.53;;;19.00;99.90;;;;;;4984312;28;20184;-85
2022/09/07 06:18:58;;;;;;;4.30;3.90;;;19.00;99.90;;;;;;4988608;28;20200;-84
2022/09/07 06:21:24;;;;;;;7.00;4.07;;;19.10;99.90;;;;;;4981386;28;20482;-85
2022/09/07 06:23:50;;;;;;;5.63;3.43;;;19.30;99.90;;;;;;4996497;28;20189;-84
2022/09/07 06:26:18;;;;;;;4.70;4.20;;;19.40;99.90;;;;;;4994502;28;20267;-85
2022/09/07 06:28:46;;;;;;;4.70;3.50;;;19.50;99.90;;;;;;4980292;28;20535;-85
2022/09/07 06:31:13;;;;;;;4.30;3.40;;;19.60;99.90;;;;;;4984709;28;20443;-84
2022/09/07 06:33:40;;;;;;;3.83;3.47;;;19.80;99.90;;;;;;4979434;28;20484;-85
2022/09/07 06:36:19;;;;;;;7.13;4.00;;;19.90;99.90;;;;;;4979565;28;20431;-85
2022/09/07 06:38:46;;;;;;;4.20;3.50;;;20.00;99.90;;;;;;4978299;28;20513;-85
2022/09/07 06:41:17;;;;;;;6.17;3.63;;;20.10;99.90;;;;;;4994331;28;20755;-85
2022/09/07 06:44:03;;;;;;;4.90;3.70;;;20.30;99.90;;;;;;4977879;28;20514;-85
2022/09/07 06:46:31;;;;;;;4.50;3.50;;;20.40;99.90;;;;;;4996046;28;20493;-85
2022/09/07 06:48:57;;;;;;;4.30;3.50;;;20.40;99.90;;;;;;4978464;28;21253;-85
2022/09/07 06:51:31;;;;;;;3.73;3.33;;;20.40;99.90;;;;;;4978947;28;20539;-85
2022/09/07 06:53:58;;;;;;;4.90;3.50;;;20.50;99.90;;;;;;4984448;28;20238;-85
2022/09/07 06:56:26;;;;;;;4.50;3.33;;;20.40;99.90;;;;;;4976477;28;20941;-85
2022/09/07 06:58:55;;;;;;;4.77;3.43;;;20.30;99.90;;;;;;4983699;28;20475;-85
2022/09/07 07:01:22;;;;;;;7.17;3.80;;;20.20;99.90;;;;;;4980913;28;20459;-85
2022/09/07 07:03:48;;;;;;;3.60;2.70;;;20.20;99.90;;;;;;4981058;28;20441;-85
2022/09/07 07:06:18;;;;;;;3.93;3.53;;;20.10;99.90;;;;;;4990708;28;20479;-85
2022/09/07 07:08:48;;;;;;;5.73;3.70;;;20.20;99.90;;;;;;4979705;28;20467;-85
2022/09/07 07:11:17;;;;;;;7.07;3.33;;;20.30;99.90;;;;;;4979438;28;20558;-84
2022/09/07 07:13:44;;;;;;;4.10;3.37;;;20.30;99.90;;;;;;4977827;28;20518;-85
2022/09/07 07:16:14;;;;;;;4.43;2.97;;;20.30;99.90;;;;;;4981398;28;20196;-85
2022/09/07 07:18:44;;;;;;;3.93;3.50;;;20.20;99.90;;;;;;4978019;28;20459;-85
2022/09/07 07:21:11;;;;;;;4.60;3.30;;;20.30;99.90;;;;;;4977342;28;20503;-84
2022/09/07 07:23:37;;;;;;;3.30;3.00;;;20.40;99.90;;;;;;4979269;28;20443;-85
2022/09/07 07:26:04;;;;;;;6.00;2.90;;;20.60;99.90;;;;;;4973958;28;20495;-85
2022/09/07 07:28:30;;;;;;;4.13;3.17;;;20.60;99.90;;;;;;4973911;28;20212;-85
2022/09/07 07:30:58;;;;;;;3.27;2.90;;;20.80;99.90;;;;;;4979076;28;20456;-85
2022/09/07 07:33:24;;;;;;;5.10;2.80;;;20.90;99.90;;;;;;4976010;28;20443;-85
2022/09/07 07:35:50;;;;;;;4.17;2.97;;;21.10;99.90;;;;;;4979430;28;20501;-85
2022/09/07 07:38:15;;;;;;;4.07;3.00;;;21.20;99.90;;;;;;4978124;28;20923;-85
2022/09/07 07:40:41;;;;;;;3.63;3.00;;;21.30;99.90;;;;;;4976428;28;20262;-85
2022/09/07 07:43:07;;;;;;;4.00;3.47;;;21.30;99.90;;;;;;4987734;28;20216;-85
2022/09/07 07:45:49;;;;;;;3.43;2.63;;;21.40;99.90;;;;;;4978786;28;20216;-85
2022/09/07 07:48:14;;;;;;;5.40;2.97;;;21.50;99.90;;;;;;4976192;28;20550;-85
2022/09/07 07:50:40;;;;;;;6.00;3.60;;;21.70;99.90;;;;;;4976746;28;20945;-86
2022/09/07 07:53:06;;;;;;;5.00;3.07;;;21.70;99.90;;;;;;4980018;28;20236;-84
2022/09/07 07:55:31;;;;;;;6.53;3.30;;;21.80;99.90;;;;;;4983670;28;20547;-85
2022/09/07 07:57:57;;;;;;;4.87;2.80;;;22.00;99.90;;;;;;4978281;28;20193;-84
2022/09/07 08:00:22;;;;;;;4.77;3.20;;;22.20;99.90;;;;;;4975230;28;20249;-85
2022/09/07 08:02:48;;;;;;;6.03;2.90;;;22.40;99.90;;;;;;4972789;28;20686;-85
2022/09/07 08:05:15;;;;;;;5.17;3.50;;;22.50;99.90;;;;;;4978269;28;20794;-86
2022/09/07 08:07:41;;;;;;;4.00;3.33;;;22.60;99.90;;;;;;4982943;28;20319;-86
2022/09/07 08:10:09;;;;;;;6.70;3.20;;;22.80;99.90;;;;;;4983966;28;21209;-87
2022/09/07 08:12:34;;;;;;;5.20;3.30;;;22.80;99.90;;;;;;4986171;28;20456;-86
2022/09/07 08:15:00;;;;;;;5.80;3.23;;;22.90;99.90;;;;;;4983213;28;20501;-87
2022/09/07 08:17:25;;;;;;;3.60;2.83;;;23.00;99.90;;;;;;4977511;28;20189;-87
2022/09/07 08:19:51;;;;;;;4.87;2.97;;;23.30;99.90;;;;;;4981165;28;20235;-87
2022/09/07 08:22:16;;;;;;;4.50;3.20;;;23.50;99.90;;;;;;4980221;28;20193;-87
2022/09/07 08:24:42;;;;;;;5.83;3.33;;;23.60;99.90;;;;;;4981188;28;20259;-87
2022/09/07 08:27:08;;;;;;;4.33;2.80;;;23.70;99.90;;;;;;4981312;28;20561;-88
2022/09/07 08:29:36;;;;;;;3.80;3.23;;;23.80;99.90;;;;;;4982161;28;20190;-87
2022/09/07 08:32:05;;;;;;;7.57;3.10;;;23.70;99.90;;;;;;4996646;28;20646;-86
2022/09/07 08:34:31;;;;;;;8.00;3.30;;;23.40;99.90;;;;;;4981972;28;20544;-85
2022/09/07 08:36:56;;;;;;;4.37;2.90;;;23.30;99.90;;;;;;4971155;28;20582;-85
2022/09/07 08:39:30;;;;;;;5.30;3.13;;;23.40;99.90;;;;;;4984370;28;20184;-88
2022/09/07 08:42:23;;;;;;;3.93;3.17;;;23.60;99.90;;;;;;4979988;28;20219;-88
2022/09/07 08:45:13;;;;;;;5.27;3.73;;;23.80;99.90;;;;;;4981570;28;20463;-88
2022/09/07 08:47:44;;;;;;;4.43;3.03;;;23.80;99.90;;;;;;4978564;28;20870;-89
2022/09/07 08:50:20;;;;;;;4.70;3.07;;;24.00;99.90;;;;;;4981143;28;20447;-87
2022/09/07 08:52:58;;;;;;;3.50;2.80;;;23.90;99.90;;;;;;4979197;28;20487;-88
2022/09/07 08:55:42;;;;;;;4.87;3.30;;;23.90;99.90;;;;;;4976538;28;20859;-88
2022/09/07 08:58:42;;;;;;;5.13;3.30;;;23.90;99.90;;;;;;4983377;28;20465;-87
2022/09/07 09:01:12;;;;;;;3.97;3.07;;;24.10;99.90;;;;;;4999808;28;20962;-86
2022/09/07 09:03:39;;;;;;;4.97;3.07;;;24.50;99.90;;;;;;4982965;28;20443;-87
2022/09/07 09:06:27;;;;;;;3.33;2.90;;;24.50;99.90;;;;;;4977368;28;20471;-87
2022/09/07 09:09:20;;;;;;;5.53;3.10;;;24.60;99.90;;;;;;4993072;28;20444;-88
2022/09/07 09:12:32;;;;;;;4.80;3.20;;;24.60;99.90;;;;;;4992754;28;20444;-87
2022/09/07 09:15:20;;;;;;;3.70;3.00;;;24.70;99.90;;;;;;4958874;28;20536;-88
2022/09/07 09:18:01;;;;;;;5.17;3.20;;;24.90;99.90;;;;;;4942000;28;20458;-88
2022/09/07 09:20:32;;;;;;;5.87;2.90;;;25.00;99.90;;;;;;4973222;28;20972;-86
2022/09/07 09:23:01;;;;;;;3.43;2.50;;;25.00;99.90;;;;;;4992728;28;20470;-86
2022/09/07 09:25:35;;;;;;;4.73;3.50;;;25.00;99.90;;;;;;4992490;28;21559;-86
2022/09/07 09:28:02;;;;;;;2.90;2.50;;;24.90;99.90;;;;;;4979536;28;20443;-86
2022/09/07 09:30:28;;;;;;;3.33;3.03;;;24.80;99.90;;;;;;4986692;28;20448;-86
2022/09/07 09:33:18;;;;;;;4.10;3.40;;;24.70;99.90;;;;;;4979228;28;21017;-86
2022/09/07 09:35:48;;;;;;;3.80;3.37;;;24.80;99.90;;;;;;4991871;28;20528;-85
2022/09/07 09:38:28;;;;;;;6.30;3.03;;;25.10;99.90;;;;;;4978746;28;21864;-85
2022/09/07 09:40:55;;;;;;;5.60;2.90;;;25.50;99.90;;;;;;4982375;28;20447;-84
2022/09/07 09:43:24;;;;;;;4.13;3.03;;;25.80;99.90;;;;;;4979487;28;20550;-85
2022/09/07 09:45:53;;;;;;;5.30;2.77;;;25.80;99.90;;;;;;4982148;28;20833;-87
2022/09/07 09:48:28;;;;;;;4.60;2.70;;;26.00;99.70;;;;;;4977296;28;20813;-87
2022/09/07 09:50:57;;;;;;;4.50;2.83;;;26.50;99.40;;;;;;4982204;28;20443;-88
2022/09/07 09:53:27;;;;;;;3.90;2.73;;;26.10;98.90;;;;;;4979814;28;20449;-87
2022/09/07 09:55:54;;;;;;;4.33;3.20;;;26.30;99.30;;;;;;4990827;28;20451;-87
2022/09/07 09:58:44;;;;;;;2.63;2.43;;;26.70;99.00;;;;;;4977087;28;20447;-87
2022/09/07 10:01:32;;;;;;;3.47;2.77;;;26.60;97.90;;;;;;4976716;28;20881;-86
2022/09/07 10:04:26;;;;;;;4.07;2.60;;;26.70;97.70;;;;;;4973841;28;20451;-87
2022/09/07 10:07:07;;;;;;;3.23;2.77;;;27.10;97.90;;;;;;4978753;28;20490;-87
2022/09/07 10:09:36;;;;;;;4.13;3.23;;;27.30;96.90;;;;;;4987588;28;20941;-86
2022/09/07 10:12:03;;;;;;;4.70;2.70;;;27.70;96.20;;;;;;4979743;28;20440;-87
2022/09/07 10:14:31;;;;;;;5.13;2.73;;;28.00;95.60;;;;;;4984247;28;20444;-87
2022/09/07 10:17:00;;;;;;;3.80;2.97;;;27.10;96.10;;;;;;4979468;28;20440;-87
2022/09/07 10:19:33;;;;;;;6.37;2.80;;;26.80;96.80;;;;;;4978814;28;20444;-87
2022/09/07 10:22:02;;;;;;;4.10;2.77;;;26.80;97.10;;;;;;4996863;28;21230;-86
2022/09/07 10:24:35;;;;;;;3.10;2.80;;;26.50;96.60;;;;;;4978061;28;20436;-86
2022/09/07 10:27:28;;;;;;;5.03;2.90;;;26.70;96.70;;;;;;4980324;28;20564;-87
2022/09/07 10:29:56;;;;;;;3.47;2.50;;;26.80;96.30;;;;;;4979300;28;20786;-86
2022/09/07 10:32:36;;;;;;;4.13;2.80;;;26.20;96.70;;;;;;4978699;28;20455;-86
2022/09/07 10:35:22;;;;;;;3.20;2.90;;;25.70;97.30;;;;;;4980359;28;20435;-86
2022/09/07 10:38:12;;;;;;;3.73;2.80;;;25.40;97.30;;;;;;4981882;28;20502;-86
2022/09/07 10:41:03;;;;;;;6.27;3.07;;;25.30;98.30;;;;;;5000742;28;20529;-86
2022/09/07 10:43:46;;;;;;;4.53;2.80;;;25.60;98.30;;;;;;4977580;28;20503;-86
2022/09/07 10:46:33;;;;;;;6.43;2.87;;;25.50;97.40;;;;;;4984289;28;20536;-86
2022/09/07 10:49:26;;;;;;;3.97;2.70;;;25.60;97.50;;;;;;4995421;28;20438;-86
2022/09/07 10:52:21;;;;;;;4.10;2.70;;;26.40;97.20;;;;;;4974657;28;20791;-85
2022/09/07 10:55:01;;;;;;;2.83;2.63;;;26.70;96.30;;;;;;4982043;28;20498;-86
2022/09/07 10:57:55;;;;;;;3.80;2.80;;;26.50;95.70;;;;;;4979105;28;20444;-86
2022/09/07 11:00:22;;;;;;;4.03;2.93;;;26.10;96.30;;;;;;4995297;28;20436;-85
2022/09/07 11:03:24;;;;;;;3.40;2.80;;;25.70;96.60;;;;;;4985835;28;20779;-85
2022/09/07 11:06:03;;;;;;;5.33;3.00;;;25.80;97.10;;;;;;4985489;28;20984;-85
2022/09/07 11:08:58;;;;;;;3.20;2.80;;;26.50;95.60;;;;;;4975556;28;20519;-85
2022/09/07 11:11:28;;;;;;;4.77;2.60;;;27.00;94.80;;;;;;4980097;28;20470;-85
2022/09/07 11:13:59;;;;;;;3.90;2.60;;;27.20;93.10;;;;;;4979671;28;20499;-85
2022/09/07 11:16:27;;;;;;;3.73;2.40;;;26.80;92.90;;;;;;4987699;28;21001;-85
2022/09/07 11:19:00;;;;;;;3.20;2.60;;;26.30;94.10;;;;;;4976107;28;20481;-85
2022/09/07 11:21:40;;;;;;;3.20;2.90;;;26.30;94.40;;;;;;4975450;28;20440;-84
2022/09/07 11:24:17;;;;;;;3.70;2.50;;;26.70;93.90;;;;;;4976310;28;20435;-85
2022/09/07 11:26:51;;;;;;;3.07;2.80;;;27.20;93.40;;;;;;4980678;28;20480;-85
2022/09/07 11:29:28;;;;;;;3.10;2.47;;;27.60;92.90;;;;;;4982773;28;20428;-85
2022/09/07 11:32:03;;;;;;;2.90;2.53;;;27.30;92.20;;;;;;4983249;28;21978;-87
2022/09/07 11:34:34;;;;;;;4.23;2.17;;;27.00;92.60;;;;;;4980086;28;20538;-86
2022/09/07 11:37:09;;;;;;;2.93;2.40;;;27.30;92.90;;;;;;4976358;28;20531;-86
2022/09/07 11:39:45;;;;;;;2.60;2.40;;;27.40;92.40;;;;;;4981592;28;20454;-86
2022/09/07 11:42:28;;;;;;;4.83;2.77;;;27.70;92.70;;;;;;4980612;28;20443;-85
2022/09/07 11:45:14;;;;;;;3.60;2.43;;;28.00;91.40;;;;;;4990332;28;20905;-84
2022/09/07 11:47:43;;;;;;;2.60;2.03;;;27.90;88.60;;;;;;4981516;28;20439;-85
2022/09/07 11:50:16;;;;;;;3.30;2.43;;;27.90;87.80;;;;;;4994454;28;20448;-85
2022/09/07 11:52:49;;;;;;;3.23;2.40;;;27.70;89.60;;;;;;4988003;28;20560;-85
2022/09/07 11:55:24;;;;;;;2.83;2.60;;;27.40;90.70;;;;;;4982342;28;21079;-85
2022/09/07 11:58:04;;;;;;;4.60;2.27;;;27.10;91.50;;;;;;4998693;28;20439;-86
2022/09/07 12:00:57;;;;;;;4.23;2.10;;;26.70;90.30;;;;;;4992800;28;20448;-86
2022/09/07 12:03:47;;;;;;;3.13;2.63;;;26.60;90.80;;;;;;4996764;28;20453;-86
2022/09/07 12:06:43;;;;;;;5.70;4.00;;;27.20;90.60;;;;;;4997823;28;20486;-85
2022/09/07 12:09:26;;;;;;;4.60;2.80;;;28.00;93.10;;;;;;4996507;28;20431;-86
2022/09/07 12:12:10;;;;;;;3.57;3.00;;;28.20;94.50;;;;;;4997775;28;20490;-85
2022/09/07 12:14:42;;;;;;;4.80;3.37;;;28.50;93.50;;;;;;4996991;28;20464;-86
2022/09/07 12:17:16;;;;;;;3.40;3.03;;;28.80;93.20;;;;;;4980626;28;20443;-86
2022/09/07 12:19:42;;;;;;;3.57;3.00;;;29.10;93.00;;;;;;5002969;28;20444;-86
2022/09/07 12:22:20;;;;;;;4.03;2.93;;;29.10;92.20;;;;;;4986285;28;20519;-85
2022/09/07 12:24:53;;;;;;;3.87;3.47;;;28.60;92.20;;;;;;4982699;28;20276;-86
2022/09/07 12:27:18;;;;;;;7.07;3.27;;;28.30;93.60;;;;;;4997450;28;20439;-86
2022/09/07 12:29:51;;;;;;;5.53;3.50;;;28.60;93.90;;;;;;4992997;28;20443;-86
2022/09/07 12:32:49;;;;;;;5.90;3.20;;;29.30;93.90;;;;;;4986126;28;20196;-85
2022/09/07 12:35:26;;;;;;;4.30;3.07;;;29.60;92.70;;;;;;4998781;28;21080;-86
2022/09/07 12:37:53;;;;;;;3.83;3.10;;;29.70;91.10;;;;;;4979559;28;20524;-85
2022/09/07 12:43:12;;;;;;;4.50;3.17;;;30.20;90.50;;;;;;4996134;28;20468;-85
2022/09/07 12:45:37;;;;;;;6.00;3.30;;;30.20;90.10;;;;;;4997347;28;20806;-86
2022/09/07 12:48:25;;;;;;;6.80;3.80;;;30.40;90.30;;;;;;4980095;28;20508;-86
2022/09/07 12:50:57;;;;;;;3.73;2.63;;;30.20;90.10;;;;;;4982557;28;20193;-85
2022/09/07 12:53:28;;;;;;;3.33;2.70;;;30.00;89.40;;;;;;4996886;28;20953;-85
2022/09/07 12:56:17;;;;;;;3.50;2.60;;;30.10;87.00;;;;;;4985687;28;20790;-85
2022/09/07 12:59:20;;;;;;;6.70;2.83;;;30.60;83.40;;;;;;4997515;28;20454;-85
2022/09/07 13:02:10;;;;;;;2.63;2.43;;;31.10;86.50;;;;;;4980992;28;20440;-85
2022/09/07 13:04:50;;;;;;;3.80;2.40;;;31.50;81.90;;;;;;4980815;28;20975;-85
2022/09/07 13:07:47;;;;;;;2.60;2.40;;;31.30;78.90;;;;;;4977777;28;20452;-85
2022/09/07 13:10:50;;;;;;;4.67;2.37;;;30.70;80.20;;;;;;4999371;28;20445;-85
2022/09/07 13:13:24;;;;;;;3.70;2.40;;;30.50;83.10;;;;;;4976775;28;20432;-84
2022/09/07 13:16:10;;;;;;;3.90;2.80;;;31.20;83.00;;;;;;4977745;28;21045;-85
2022/09/07 13:18:36;;;;;;;4.93;2.87;;;31.50;80.90;;;;;;4979301;28;20436;-85